Nearby METAR Reports

 

EBBR - Brussels Nationa, Belgium
Distance from station: W 14km
Updated: 27/11/2020 09:20
Mist, Meestal bewolkt
Mist, Meestal bewolkt
 Wind van NO
Wind: NO 4 km/h
Temperatuur: 6°C
Dauwpunt: 5°C
Vochtigheid: 93%
Barometer: 1019 hPa
Overzicht: Mist
Clouds: Meestal bewolkt
Visibility: 3 km
Cloud details: Gedeeltelijk bewolkt 122 m
Meestal bewolkt 183 m
2020/11/27 08:20 EBBR 270820Z 05002KT 3000 BR SCT004 BKN006 06/05 Q1019 TEMPO 1400 BR BKN004
EBBE - Beauvechain (baf, Belgium
Distance from station: ZZO 16km
Updated: 27/11/2020 09:25
Mist, Helder
Mist, Helder
 Wind van calm
Wind: Kalm
Temperatuur: 4°C
Dauwpunt: 4°C
Vochtigheid: 100%
Barometer: 1019 hPa
Overzicht: Mist
Clouds: Helder
Visibility: 4 km
2020/11/27 08:25 EBBE 270825Z AUTO 00000KT 3600 BR NCD 04/04 Q1019 YLO
 
EBDT - Schaffen, Belgium
Distance from station: ONO 30km
Updated: 27/11/2020 09:25
Mist, Zwaar bewolkt
Mist, Zwaar bewolkt
 Wind van varies
Wind: varies 2 km/h
Temperatuur: 6°C
Dauwpunt: 5°C
Vochtigheid: 93%
Barometer: 1019 hPa
Overzicht: Mist
Clouds: Zwaar bewolkt
Visibility: 4 km
Cloud details: Gedeeltelijk bewolkt 91 m
Meestal bewolkt 152 m
Zwaar bewolkt 975 m
2020/11/27 08:25 EBDT 270825Z AUTO VRB01KT 3700 BR SCT003/// BKN005/// OVC032/// 06/05 Q1019 YLO
EBAW - Antwerp/Deurne, Belgium
Distance from station: NNW 38km
Updated: 27/11/2020 09:20
Mist, Meestal bewolkt
Mist, Meestal bewolkt
 Wind van NO
Wind: NO 6 km/h
Temperatuur: 7°C
Dauwpunt: 5°C
Vochtigheid: 87%
Barometer: 1020 hPa
Overzicht: Mist
Clouds: Meestal bewolkt
Visibility: 4 km
Cloud details: Meestal bewolkt 152 m
2020/11/27 08:20 EBAW 270820Z 05003KT 030V090 4000 BR BKN005 07/05 Q1020 NOSIG